Terminal Aerodrome Forecast
Issued by NWS Sterling, VA

Current Version | Previous Version | Graphics & Text | Print | Product List | Glossary On
Versions: 1 2 3 4 5 6 7 8 9 10 11 12 13 14 15 16 17 18 19 20 21 22 23
000
FTUS41 KLWX 051720
TAFMRB
TAF
KMRB 051720Z 0518/0618 34010G18KT 1/2SM SN OVC008
     FM051900 34010KT 2SM -SN OVC008
     FM052200 34009KT 6SM -SN OVC015
     FM060200 32008KT P6SM SCT050
     FM060600 35005KT P6SM FEW250=

USA.gov is the U.S. government's official web portal to all federal, state and local government web resources and services.